Time;durP1;ratioP1;P1;durP2;ratioP2;P2;SDS_P1;SDS_P2;PMS_P1;PMS_P2;Temp;Humidity;BMP_temperature;BMP_pressure;BME280_temperature;BME280_humidity;BME280_pressure;Samples;Min_cycle;Max_cycle;Signal;HPM_P1;HPM_P2
2021/06/01 00:01:49;;;;;;;8.07;4.10;;;16.10;82.70;;;;;;6215055;23;20079;-75
2021/06/01 00:04:16;;;;;;;4.18;2.65;;;16.10;82.70;;;;;;6240872;23;20010;-75
2021/06/01 00:06:44;;;;;;;4.85;2.30;;;16.10;82.60;;;;;;6242297;23;20034;-75
2021/06/01 00:09:14;;;;;;;2.85;1.67;;;16.10;82.50;;;;;;6241216;23;20000;-75
2021/06/01 00:11:40;;;;;;;5.65;2.75;;;16.00;82.40;;;;;;6242527;23;20656;-75
2021/06/01 00:14:07;;;;;;;5.55;2.60;;;16.00;82.40;;;;;;6242382;23;20397;-75
2021/06/01 00:16:35;;;;;;;6.95;2.38;;;16.00;82.30;;;;;;6241556;23;20015;-75
2021/06/01 00:19:02;;;;;;;4.72;2.35;;;16.00;82.30;;;;;;6242520;23;20355;-75
2021/06/01 00:21:29;;;;;;;5.50;2.40;;;16.00;82.20;;;;;;6241060;23;20099;-75
2021/06/01 00:23:55;;;;;;;3.80;2.10;;;16.00;82.20;;;;;;6242315;23;20655;-75
2021/06/01 00:26:22;;;;;;;3.53;2.20;;;15.90;82.10;;;;;;6240948;23;20010;-75
2021/06/01 00:28:50;;;;;;;4.22;2.05;;;16.00;82.20;;;;;;6241023;23;20012;-74
2021/06/01 00:31:17;;;;;;;2.75;1.95;;;15.90;82.10;;;;;;6214734;23;20008;-75
2021/06/01 00:33:43;;;;;;;3.20;1.77;;;15.90;82.20;;;;;;6241802;23;20007;-75
2021/06/01 00:36:10;;;;;;;3.47;1.98;;;15.90;82.30;;;;;;6215207;23;20332;-75
2021/06/01 00:38:37;;;;;;;2.33;1.73;;;15.90;82.40;;;;;;6239811;23;20000;-75
2021/06/01 00:41:05;;;;;;;5.05;1.50;;;15.90;82.50;;;;;;6242364;23;20022;-75
2021/06/01 00:43:32;;;;;;;5.18;1.80;;;15.90;82.70;;;;;;6241346;23;20327;-75
2021/06/01 00:45:59;;;;;;;6.88;1.58;;;16.00;82.90;;;;;;6242246;23;20051;-75
2021/06/01 00:48:25;;;;;;;2.40;1.35;;;15.90;83.00;;;;;;6241257;23;20102;-75
2021/06/01 00:50:52;;;;;;;3.30;2.03;;;16.00;83.10;;;;;;6241048;23;20447;-73
2021/06/01 00:53:19;;;;;;;2.92;1.40;;;15.90;83.20;;;;;;6241863;23;19996;-75
2021/06/01 00:55:45;;;;;;;4.78;1.73;;;16.00;83.30;;;;;;6243006;23;20000;-75
2021/06/01 00:58:12;;;;;;;6.68;1.80;;;16.00;83.30;;;;;;6244447;23;20420;-75
2021/06/01 01:03:11;;;;;;;3.03;1.45;;;15.90;83.10;;;;;;6244636;23;20014;-75
2021/06/01 01:05:44;;;;;;;4.07;1.27;;;15.90;83.00;;;;;;6242891;23;20008;-75
2021/06/01 01:11:05;;;;;;;;;;;15.90;82.80;;;;;;6244633;23;20498;-75
2021/06/01 01:13:53;;;;;;;11.05;2.75;;;15.90;82.70;;;;;;6243046;23;19978;-76
2021/06/01 01:16:22;;;;;;;4.05;1.70;;;15.90;82.50;;;;;;6215400;23;20004;-76
2021/06/01 01:19:15;;;;;;;3.45;1.58;;;15.90;82.30;;;;;;6215949;23;20004;-75
2021/06/01 01:21:50;;;;;;;3.08;1.63;;;15.90;82.20;;;;;;6242013;23;20519;-75
2021/06/01 01:24:43;;;;;;;3.17;1.70;;;15.80;82.10;;;;;;6243749;23;20012;-75
2021/06/01 01:27:20;;;;;;;6.60;2.47;;;15.80;81.90;;;;;;6242462;23;20012;-75
2021/06/01 01:29:48;;;;;;;3.80;1.40;;;15.80;81.90;;;;;;6216432;23;20000;-75
2021/06/01 01:32:36;;;;;;;5.28;1.95;;;15.80;81.80;;;;;;6243505;23;20406;-75
2021/06/01 01:35:05;;;;;;;2.88;2.10;;;15.80;81.80;;;;;;6242302;23;20008;-75
2021/06/01 01:37:34;;;;;;;5.13;1.90;;;15.70;81.60;;;;;;6243694;23;20000;-75
2021/06/01 01:40:03;;;;;;;3.95;1.90;;;15.70;81.50;;;;;;6215401;23;20004;-75
2021/06/01 01:42:42;;;;;;;4.72;2.40;;;15.70;81.50;;;;;;6215897;23;20095;-75
2021/06/01 01:45:21;;;;;;;3.50;1.80;;;15.70;81.50;;;;;;6243723;23;20378;-75
2021/06/01 01:50:41;;;;;;;5.90;2.13;;;15.70;81.50;;;;;;6244574;23;20490;-73
2021/06/01 01:53:15;;;;;;;4.13;2.03;;;15.70;81.50;;;;;;6215404;23;20008;-75
2021/06/01 01:55:46;;;;;;;4.25;2.50;;;15.60;81.50;;;;;;6243513;23;20005;-75
2021/06/01 01:58:14;;;;;;;3.30;1.83;;;15.70;81.70;;;;;;6243215;23;20000;-74
2021/06/01 02:00:42;;;;;;;4.68;2.08;;;15.70;81.90;;;;;;6215514;23;20000;-74
2021/06/01 02:03:09;;;;;;;6.45;2.72;;;15.70;82.00;;;;;;6243559;23;20050;-74
2021/06/01 02:05:45;;;;;;;4.38;1.98;;;15.70;82.10;;;;;;6242353;23;19997;-75
2021/06/01 02:08:12;;;;;;;3.47;2.35;;;15.70;82.20;;;;;;6242078;23;20066;-74
2021/06/01 02:10:39;;;;;;;2.75;2.33;;;15.60;82.30;;;;;;6241786;23;19996;-73
2021/06/01 02:13:06;;;;;;;3.72;2.80;;;15.70;82.40;;;;;;6216116;23;20004;-74
2021/06/01 02:15:32;;;;;;;3.05;2.75;;;15.70;82.40;;;;;;6243493;23;20355;-74
2021/06/01 02:17:59;;;;;;;2.75;2.15;;;15.70;82.50;;;;;;6242397;23;20000;-74
2021/06/01 02:20:26;;;;;;;3.13;2.53;;;15.70;82.50;;;;;;6243259;23;19996;-75
2021/06/01 02:25:44;;;;;;;3.55;2.40;;;15.70;82.60;;;;;;6243505;23;20008;-75
2021/06/01 02:28:23;;;;;;;3.88;2.08;;;15.70;82.70;;;;;;6241993;23;20016;-75
2021/06/01 02:30:56;;;;;;;3.28;2.10;;;15.70;82.70;;;;;;6242471;23;20004;-75
2021/06/01 02:33:24;;;;;;;4.00;2.22;;;15.70;82.70;;;;;;6241863;23;20004;-75
2021/06/01 02:35:52;;;;;;;2.47;1.83;;;15.70;82.60;;;;;;6241649;23;20058;-75
2021/06/01 02:38:20;;;;;;;3.08;1.88;;;15.70;82.50;;;;;;6243041;23;20098;-74
2021/06/01 02:40:48;;;;;;;2.50;1.77;;;15.70;82.50;;;;;;6242000;23;20077;-74
2021/06/01 02:43:15;;;;;;;3.25;2.20;;;15.60;82.30;;;;;;6243028;23;20446;-73
2021/06/01 02:45:44;;;;;;;5.85;2.30;;;15.60;82.20;;;;;;6243051;23;20000;-75
2021/06/01 02:48:15;;;;;;;3.25;2.15;;;15.60;82.10;;;;;;6214330;23;20447;-75
2021/06/01 02:50:43;;;;;;;5.50;3.08;;;15.60;81.90;;;;;;6242978;23;20001;-74
2021/06/01 02:53:13;;;;;;;8.27;2.40;;;15.60;82.40;;;;;;6241029;23;20007;-75
2021/06/01 02:55:40;;;;;;;4.63;2.20;;;15.60;81.60;;;;;;6243658;23;20000;-75
2021/06/01 02:58:08;;;;;;;3.63;2.40;;;15.50;81.50;;;;;;6239994;23;20004;-75
2021/06/01 03:00:36;;;;;;;4.03;2.55;;;15.50;81.40;;;;;;6241718;23;20004;-75
2021/06/01 03:03:08;;;;;;;2.38;1.92;;;15.50;81.20;;;;;;6241638;23;20011;-75
2021/06/01 03:05:35;;;;;;;3.80;2.50;;;15.50;81.10;;;;;;6241795;23;19996;-75
2021/06/01 03:08:28;;;;;;;4.68;2.25;;;15.50;81.10;;;;;;6243063;23;20040;-75
2021/06/01 03:11:04;;;;;;;3.30;2.70;;;15.50;81.00;;;;;;6242168;23;20003;-75
2021/06/01 03:13:31;;;;;;;4.22;2.25;;;15.50;80.90;;;;;;6238331;23;20008;-74
2021/06/01 03:15:58;;;;;;;4.82;3.13;;;15.40;80.80;;;;;;6215142;23;20027;-74
2021/06/01 03:18:25;;;;;;;5.25;2.90;;;15.40;80.80;;;;;;6241729;23;20000;-75
2021/06/01 03:20:51;;;;;;;3.50;3.20;;;15.40;80.80;;;;;;6215557;23;20058;-75
2021/06/01 03:23:19;;;;;;;3.35;3.00;;;15.40;80.70;;;;;;6240255;23;19996;-75
2021/06/01 03:25:45;;;;;;;4.25;2.70;;;15.40;80.70;;;;;;6242915;23;20027;-74
2021/06/01 03:28:13;;;;;;;5.38;3.08;;;15.40;80.60;;;;;;6241205;23;20012;-75
2021/06/01 03:30:40;;;;;;;8.98;3.13;;;15.30;80.50;;;;;;6242307;23;20050;-74
2021/06/01 03:33:06;;;;;;;4.03;2.95;;;15.30;80.00;;;;;;6242046;23;20007;-74
2021/06/01 03:35:33;;;;;;;4.53;3.55;;;15.40;80.30;;;;;;6242423;23;19999;-74
2021/06/01 03:38:00;;;;;;;4.22;3.65;;;15.30;80.20;;;;;;6214920;23;20431;-75
2021/06/01 03:40:26;;;;;;;5.45;3.33;;;15.30;80.20;;;;;;6241410;23;19996;-74
2021/06/01 03:42:53;;;;;;;4.60;2.75;;;15.30;80.10;;;;;;6242783;23;20008;-74
2021/06/01 03:45:22;;;;;;;4.15;2.80;;;15.30;80.10;;;;;;6241192;23;19996;-74
2021/06/01 03:47:49;;;;;;;5.65;2.40;;;15.20;80.60;;;;;;6241774;23;20012;-74
2021/06/01 03:50:16;;;;;;;6.57;3.38;;;15.30;79.90;;;;;;6241309;23;20423;-74
2021/06/01 03:52:44;;;;;;;3.58;2.60;;;15.20;79.80;;;;;;6241948;23;20010;-74
2021/06/01 03:55:11;;;;;;;5.25;3.72;;;15.20;79.80;;;;;;6242506;23;20001;-74
2021/06/01 03:57:38;;;;;;;16.92;13.55;;;15.20;79.80;;;;;;6212926;23;20335;-73
2021/06/01 04:00:12;;;;;;;19.80;16.58;;;15.20;79.80;;;;;;6242358;23;20004;-75
2021/06/01 04:02:38;;;;;;;18.75;14.15;;;15.20;79.80;;;;;;6241083;23;20004;-75
2021/06/01 04:05:05;;;;;;;13.60;9.95;;;15.20;79.80;;;;;;6242627;23;20011;-73
2021/06/01 04:07:32;;;;;;;11.13;7.00;;;15.20;79.80;;;;;;6241687;23;20019;-72
2021/06/01 04:09:58;;;;;;;7.55;5.45;;;15.20;79.80;;;;;;6241866;23;20079;-72
2021/06/01 04:12:25;;;;;;;5.57;3.88;;;15.20;79.80;;;;;;6241737;23;20011;-74
2021/06/01 04:14:51;;;;;;;5.88;3.22;;;15.20;79.70;;;;;;6241339;23;19989;-72
2021/06/01 04:17:22;;;;;;;4.60;3.30;;;15.20;79.60;;;;;;6241437;23;20008;-77
2021/06/01 04:19:49;;;;;;;5.47;4.50;;;15.10;79.50;;;;;;6239320;23;20415;-73
2021/06/01 04:22:15;;;;;;;13.95;7.72;;;15.20;80.10;;;;;;6242020;23;20016;-72
2021/06/01 04:24:42;;;;;;;10.52;7.32;;;15.10;79.40;;;;;;6241265;23;19996;-74
2021/06/01 04:27:09;;;;;;;8.40;6.18;;;15.10;79.40;;;;;;6241712;23;20012;-74
2021/06/01 04:29:36;;;;;;;8.38;5.72;;;15.10;79.30;;;;;;6243170;23;20004;-75
2021/06/01 04:32:03;;;;;;;13.38;7.68;;;15.10;79.30;;;;;;6243769;23;20000;-73
2021/06/01 04:34:31;;;;;;;25.73;12.45;;;15.10;79.30;;;;;;6244288;23;20004;-75
2021/06/01 04:36:58;;;;;;;27.88;13.95;;;15.10;79.40;;;;;;6243057;23;19996;-74
2021/06/01 04:39:24;;;;;;;26.08;14.52;;;15.10;79.60;;;;;;6244308;23;20336;-72
2021/06/01 04:42:30;;;;;;;21.98;10.63;;;15.10;79.60;;;;;;6240997;23;20032;-71
2021/06/01 04:45:36;;;;;;;19.35;8.95;;;15.10;79.70;;;;;;6241689;23;20073;-75
2021/06/01 04:48:03;;;;;;;9.88;6.55;;;15.10;79.50;;;;;;6215767;23;20385;-75
2021/06/01 04:50:30;;;;;;;8.02;5.28;;;15.10;79.50;;;;;;6241351;23;20024;-74
2021/06/01 04:53:36;;;;;;;6.63;4.82;;;15.10;79.50;;;;;;6242682;23;20008;-76
2021/06/01 04:56:03;;;;;;;6.97;4.10;;;15.00;78.70;;;;;;6242772;23;20032;-73
2021/06/01 04:58:29;;;;;;;7.25;4.68;;;14.90;79.40;;;;;;6241163;23;20008;-73
2021/06/01 05:00:56;;;;;;;8.63;4.65;;;14.90;79.60;;;;;;6242011;23;20004;-73
2021/06/01 05:03:22;;;;;;;5.75;4.35;;;14.90;79.80;;;;;;6240815;23;20313;-73
2021/06/01 05:05:49;;;;;;;4.18;3.63;;;14.90;79.70;;;;;;6242618;23;20162;-73
2021/06/01 05:08:16;;;;;;;5.40;3.60;;;14.80;79.50;;;;;;6241621;23;20012;-73
2021/06/01 05:10:42;;;;;;;4.00;3.15;;;14.90;79.50;;;;;;6241005;23;20023;-73
2021/06/01 05:13:09;;;;;;;5.68;3.10;;;14.90;79.30;;;;;;6241939;23;20005;-74
2021/06/01 05:15:36;;;;;;;5.53;3.42;;;14.90;79.30;;;;;;6241322;23;20024;-73
2021/06/01 05:18:03;;;;;;;8.07;3.83;;;14.90;79.20;;;;;;6215899;23;20376;-73
2021/06/01 05:20:30;;;;;;;4.72;3.60;;;14.90;79.10;;;;;;6213682;23;20008;-73
2021/06/01 05:22:57;;;;;;;5.30;4.50;;;14.90;79.10;;;;;;6243173;23;20020;-73
2021/06/01 05:25:24;;;;;;;7.10;4.82;;;14.90;79.10;;;;;;6243185;23;20050;-73
2021/06/01 05:27:51;;;;;;;5.95;4.82;;;14.80;79.10;;;;;;6243709;23;20324;-73
2021/06/01 05:30:23;;;;;;;6.88;5.25;;;14.90;79.20;;;;;;6242337;23;20000;-73
2021/06/01 05:36:14;;;;;;;6.75;5.60;;;14.90;79.50;;;;;;6241726;23;20011;-74
2021/06/01 05:38:40;;;;;;;6.95;6.03;;;14.80;79.60;;;;;;6242269;23;20097;-73
2021/06/01 05:41:06;;;;;;;9.10;7.15;;;14.90;79.80;;;;;;6242748;23;20003;-73
2021/06/01 05:43:35;;;;;;;8.10;6.90;;;14.90;80.10;;;;;;6245507;23;20023;-73
2021/06/01 05:46:02;;;;;;;8.55;6.28;;;14.90;80.20;;;;;;6242780;23;19999;-73
2021/06/01 05:48:29;;;;;;;7.20;6.32;;;14.90;80.40;;;;;;6243231;23;20016;-73
2021/06/01 05:50:56;;;;;;;8.68;7.20;;;14.90;80.60;;;;;;6242358;23;20000;-73
2021/06/01 05:53:24;;;;;;;8.43;6.70;;;14.90;80.60;;;;;;6243691;23;20079;-73
2021/06/01 05:55:51;;;;;;;10.43;6.85;;;14.90;80.90;;;;;;6242673;23;20000;-73
2021/06/01 05:58:18;;;;;;;8.48;6.22;;;14.90;81.10;;;;;;6241704;23;20004;-73
2021/06/01 06:00:45;;;;;;;8.40;5.50;;;14.90;81.20;;;;;;6243229;23;20346;-73
2021/06/01 06:03:14;;;;;;;5.57;5.03;;;15.00;81.30;;;;;;6242336;23;20435;-73
2021/06/01 06:05:41;;;;;;;6.75;5.10;;;15.00;81.40;;;;;;6243395;23;20320;-73
2021/06/01 06:08:12;;;;;;;8.82;5.00;;;15.00;81.30;;;;;;6242393;23;20039;-73
2021/06/01 06:10:42;;;;;;;6.30;4.65;;;15.00;81.40;;;;;;6243403;23;20316;-73
2021/06/01 06:13:09;;;;;;;6.25;4.80;;;15.00;81.40;;;;;;6242557;23;20080;-73
2021/06/01 06:15:36;;;;;;;6.10;4.88;;;15.00;81.40;;;;;;6242985;23;20053;-73
2021/06/01 06:18:18;;;;;;;5.10;4.03;;;15.00;81.50;;;;;;6242983;23;20000;-73
2021/06/01 06:20:45;;;;;;;6.18;5.10;;;15.00;81.50;;;;;;6241575;23;20007;-73
2021/06/01 06:23:15;;;;;;;6.95;4.90;;;15.00;81.60;;;;;;6242150;23;20557;-73
2021/06/01 06:25:41;;;;;;;5.75;4.72;;;15.00;81.70;;;;;;6242044;23;20001;-73
2021/06/01 06:28:08;;;;;;;5.47;4.68;;;15.00;81.80;;;;;;6243055;23;20351;-73
2021/06/01 06:30:34;;;;;;;8.23;5.43;;;15.00;81.90;;;;;;6242564;23;20028;-73
2021/06/01 06:33:01;;;;;;;5.32;4.55;;;15.00;82.00;;;;;;6243025;23;20054;-73
2021/06/01 06:35:27;;;;;;;7.30;4.47;;;15.10;82.20;;;;;;6242969;23;20000;-73
2021/06/01 06:37:54;;;;;;;7.55;4.28;;;15.00;82.30;;;;;;6242012;23;20079;-73
2021/06/01 06:40:20;;;;;;;6.03;4.57;;;15.10;83.10;;;;;;6243464;23;20050;-73
2021/06/01 06:42:47;;;;;;;5.68;4.18;;;15.10;82.50;;;;;;6242135;23;20004;-73
2021/06/01 06:45:15;;;;;;;8.77;5.18;;;15.10;82.60;;;;;;6242757;23;20012;-74
2021/06/01 06:50:16;;;;;;;7.05;4.50;;;15.10;82.80;;;;;;6242543;23;20011;-74
2021/06/01 06:52:44;;;;;;;6.40;4.45;;;15.10;82.90;;;;;;6242545;23;20000;-73
2021/06/01 06:55:12;;;;;;;7.30;5.15;;;15.10;82.90;;;;;;6241866;23;20553;-73
2021/06/01 06:57:39;;;;;;;9.75;4.97;;;15.10;82.90;;;;;;6243253;23;20035;-74
2021/06/01 07:00:13;;;;;;;5.70;5.10;;;15.10;83.10;;;;;;6241536;23;20082;-73
2021/06/01 07:02:42;;;;;;;5.53;4.72;;;15.10;83.20;;;;;;6242894;23;20004;-73
2021/06/01 07:05:11;;;;;;;10.50;5.63;;;15.10;83.30;;;;;;6242002;23;20008;-73
2021/06/01 07:07:38;;;;;;;5.43;4.50;;;15.10;83.50;;;;;;6242617;23;20024;-73
2021/06/01 07:10:06;;;;;;;6.15;5.53;;;15.10;83.70;;;;;;6242775;23;20050;-74
2021/06/01 07:12:32;;;;;;;6.68;5.28;;;15.20;83.90;;;;;;6238718;23;20000;-73
2021/06/01 07:15:11;;;;;;;7.38;4.82;;;15.20;84.10;;;;;;6243276;23;20003;-73
2021/06/01 07:17:46;;;;;;;8.13;5.53;;;15.20;84.20;;;;;;6241636;23;20004;-73
2021/06/01 07:20:15;;;;;;;;;;;15.20;84.30;;;;;;6243455;23;20000;-73
2021/06/01 07:22:42;;;;;;;13.68;6.38;;;15.20;84.50;;;;;;6241972;23;19912;-73
2021/06/01 07:25:09;;;;;;;12.10;5.82;;;15.20;84.50;;;;;;6241957;23;20419;-73
2021/06/01 07:27:36;;;;;;;10.20;5.85;;;15.20;84.60;;;;;;6242603;23;20011;-73
2021/06/01 07:30:05;;;;;;;15.82;7.03;;;15.30;84.80;;;;;;6241380;23;20046;-73
2021/06/01 07:32:31;;;;;;;15.80;10.15;;;15.20;85.00;;;;;;6242987;23;20000;-73
2021/06/01 07:34:59;;;;;;;24.70;13.38;;;15.30;85.10;;;;;;6241369;23;20004;-73
2021/06/01 07:37:26;;;;;;;24.48;14.27;;;15.30;85.20;;;;;;6242039;23;20099;-73
2021/06/01 07:39:52;;;;;;;31.40;17.45;;;15.30;85.30;;;;;;6241981;23;20004;-73
2021/06/01 07:42:19;;;;;;;42.95;21.70;;;15.30;85.40;;;;;;6242085;23;20007;-73
2021/06/01 07:44:45;;;;;;;38.17;21.10;;;15.30;85.40;;;;;;6242918;23;20062;-73
2021/06/01 07:47:12;;;;;;;47.97;27.10;;;15.40;85.50;;;;;;6214405;23;20038;-73
2021/06/01 07:49:38;;;;;;;41.20;25.27;;;15.40;86.20;;;;;;6242662;23;20000;-73
2021/06/01 07:52:05;;;;;;;43.05;25.23;;;15.40;85.60;;;;;;6241240;23;20054;-73
2021/06/01 07:54:32;;;;;;;40.10;22.45;;;15.40;85.60;;;;;;6242488;23;20015;-73
2021/06/01 07:56:59;;;;;;;43.25;24.70;;;15.40;85.70;;;;;;6242130;23;20004;-73
2021/06/01 07:59:26;;;;;;;35.20;19.63;;;15.40;85.70;;;;;;6241106;23;20344;-73
2021/06/01 08:01:52;;;;;;;32.58;21.27;;;15.40;85.80;;;;;;6215346;23;20373;-73
2021/06/01 08:04:19;;;;;;;30.17;17.45;;;15.50;85.80;;;;;;6241366;23;20300;-73
2021/06/01 08:06:46;;;;;;;26.98;16.55;;;15.50;85.90;;;;;;6242172;23;20000;-72
2021/06/01 08:09:12;;;;;;;27.73;15.23;;;15.60;86.00;;;;;;6241118;23;20023;-73
2021/06/01 08:11:39;;;;;;;24.88;16.73;;;15.50;86.10;;;;;;6240966;23;20003;-73
2021/06/01 08:14:06;;;;;;;23.25;15.05;;;15.60;86.20;;;;;;6241133;23;20008;-72
2021/06/01 08:16:33;;;;;;;19.15;12.73;;;15.60;86.30;;;;;;6242269;23;20302;-72
2021/06/01 08:19:05;;;;;;;22.75;14.00;;;15.70;86.40;;;;;;6214884;23;20386;-73
2021/06/01 08:21:50;;;;;;;23.35;11.82;;;15.70;86.40;;;;;;6241196;23;20016;-72
2021/06/01 08:24:17;;;;;;;16.38;11.68;;;15.70;86.40;;;;;;6242288;23;20000;-73
2021/06/01 08:26:43;;;;;;;16.73;11.88;;;15.70;86.40;;;;;;6241141;23;20328;-73
2021/06/01 08:29:12;;;;;;;21.70;12.50;;;15.80;86.50;;;;;;6242390;23;20015;-72
2021/06/01 08:31:40;;;;;;;17.25;12.02;;;15.80;86.50;;;;;;6241332;23;19992;-72
2021/06/01 08:34:06;;;;;;;17.30;12.60;;;15.80;86.50;;;;;;6242004;23;20031;-72
2021/06/01 08:36:33;;;;;;;20.30;12.90;;;15.80;86.60;;;;;;6242102;23;20028;-73
2021/06/01 08:39:00;;;;;;;15.43;10.95;;;15.90;86.70;;;;;;6239907;23;20079;-73
2021/06/01 08:41:26;;;;;;;17.15;11.18;;;15.90;86.70;;;;;;6242229;23;20035;-73
2021/06/01 08:43:55;;;;;;;22.10;12.35;;;16.00;86.80;;;;;;6240979;23;19996;-73
2021/06/01 08:46:26;;;;;;;13.07;10.02;;;16.00;86.70;;;;;;6242431;23;20004;-73
2021/06/01 08:48:54;;;;;;;15.40;10.48;;;16.10;86.70;;;;;;6241384;23;20008;-73
2021/06/01 08:51:23;;;;;;;17.70;8.98;;;16.10;86.50;;;;;;6241742;23;20003;-73
2021/06/01 08:53:51;;;;;;;17.08;9.85;;;16.10;86.50;;;;;;6241913;23;19996;-73
2021/06/01 08:56:19;;;;;;;14.38;9.38;;;16.10;86.40;;;;;;6241005;23;19999;-73
2021/06/01 08:58:49;;;;;;;17.40;9.13;;;16.20;86.30;;;;;;6242486;23;20371;-73
2021/06/01 09:01:18;;;;;;;22.88;11.75;;;16.20;86.30;;;;;;6213637;23;20004;-73
2021/06/01 09:03:50;;;;;;;18.73;9.98;;;16.30;86.30;;;;;;6242230;23;20336;-73
2021/06/01 09:11:37;;;;;;;21.50;13.15;;;16.40;86.20;;;;;;6241081;23;20011;-73
2021/06/01 09:22:44;;;;;;;25.40;13.68;;;16.50;86.10;;;;;;6242538;23;20294;-73
2021/06/01 09:25:35;;;;;;;19.95;13.00;;;16.60;86.20;;;;;;6243842;23;20075;-73
2021/06/01 09:28:04;;;;;;;22.58;13.00;;;16.60;86.10;;;;;;6243005;23;20054;-73
2021/06/01 09:30:35;;;;;;;21.17;12.15;;;16.60;86.10;;;;;;6243429;23;20431;-73
2021/06/01 09:33:04;;;;;;;15.90;10.98;;;16.70;86.10;;;;;;6243833;23;20000;-73
2021/06/01 09:35:49;;;;;;;18.52;11.52;;;16.70;86.10;;;;;;6242451;23;19996;-73
2021/06/01 09:38:18;;;;;;;15.88;11.27;;;16.80;86.10;;;;;;6242470;23;20086;-73
2021/06/01 09:40:46;;;;;;;20.75;10.85;;;16.80;86.10;;;;;;6242210;23;20000;-73
2021/06/01 09:43:15;;;;;;;20.92;10.57;;;16.80;86.10;;;;;;6243406;23;20073;-73
2021/06/01 09:45:43;;;;;;;20.13;11.07;;;16.90;86.00;;;;;;6243434;23;20317;-73
2021/06/01 09:48:12;;;;;;;20.60;10.95;;;17.00;85.90;;;;;;6242501;23;20035;-73
2021/06/01 09:50:55;;;;;;;16.83;10.25;;;17.00;85.80;;;;;;6244014;23;20004;-73
2021/06/01 09:55:50;;;;;;;13.85;8.77;;;17.10;85.40;;;;;;6244286;23;20007;-73
2021/06/01 09:58:37;;;;;;;14.40;8.00;;;17.10;85.20;;;;;;6242883;23;20076;-73
2021/06/01 10:01:06;;;;;;;13.35;8.35;;;17.20;85.10;;;;;;6241803;23;20000;-73
2021/06/01 10:03:46;;;;;;;10.68;7.05;;;17.30;84.90;;;;;;6216301;23;20059;-73
2021/06/01 10:06:13;;;;;;;12.38;7.68;;;17.30;84.80;;;;;;6241913;23;20905;-73
2021/06/01 10:08:49;;;;;;;14.23;7.82;;;17.30;84.70;;;;;;6242930;23;20023;-73
2021/06/01 10:11:16;;;;;;;9.25;6.85;;;17.40;84.40;;;;;;6242482;23;20000;-73
2021/06/01 10:13:43;;;;;;;11.45;6.70;;;17.50;84.20;;;;;;6243329;23;20341;-73
2021/06/01 10:16:13;;;;;;;13.63;6.97;;;17.50;83.80;;;;;;6243250;23;20023;-73
2021/06/01 10:18:41;;;;;;;10.80;6.95;;;17.50;83.40;;;;;;6242135;23;20001;-73
2021/06/01 10:21:13;;;;;;;14.73;6.97;;;17.60;83.20;;;;;;6243347;23;20011;-73
2021/06/01 10:23:41;;;;;;;8.43;6.50;;;17.60;82.90;;;;;;6242300;23;20020;-74
2021/06/01 10:26:10;;;;;;;13.57;6.07;;;17.60;83.00;;;;;;6243067;23;19996;-73
2021/06/01 10:28:39;;;;;;;8.45;5.82;;;17.60;83.00;;;;;;6242543;23;20417;-73
2021/06/01 10:31:09;;;;;;;8.02;5.35;;;17.70;82.80;;;;;;6241688;23;19996;-73
2021/06/01 10:33:38;;;;;;;9.88;4.85;;;17.70;82.40;;;;;;6242737;23;20000;-73
2021/06/01 10:52:26;;;;;;;10.88;5.53;;;18.00;80.80;;;;;;6243524;23;20027;-73
2021/06/01 10:54:58;;;;;;;9.25;5.75;;;18.10;80.70;;;;;;6242874;23;19997;-73
2021/06/01 10:57:55;;;;;;;12.45;5.35;;;18.10;80.00;;;;;;6242052;23;20004;-74
2021/06/01 11:03:10;;;;;;;12.55;5.93;;;18.20;79.70;;;;;;6241307;23;20062;-73
2021/06/01 11:06:04;;;;;;;14.18;7.38;;;18.20;79.80;;;;;;6242059;23;20012;-74
2021/06/01 11:08:36;;;;;;;13.18;6.63;;;18.20;79.90;;;;;;6238682;23;20012;-73
2021/06/01 11:11:25;;;;;;;13.02;5.97;;;18.20;79.90;;;;;;6214682;23;20008;-73
2021/06/01 11:13:54;;;;;;;14.48;7.10;;;18.10;79.80;;;;;;6242446;23;20376;-73
2021/06/01 11:16:20;;;;;;;10.20;6.30;;;18.10;79.50;;;;;;6241967;23;20489;-74
2021/06/01 11:18:59;;;;;;;10.80;6.80;;;18.00;79.30;;;;;;6242440;23;19992;-73
2021/06/01 11:21:34;;;;;;;10.18;6.57;;;18.10;79.70;;;;;;6242562;23;20008;-74
2021/06/01 11:35:32;;;;;;;12.60;7.05;;;18.20;80.40;;;;;;6242678;23;20026;-73
2021/06/01 11:43:13;;;;;;;13.68;7.20;;;18.50;79.90;;;;;;6243070;23;20008;-74
2021/06/01 11:51:28;;;;;;;12.80;6.55;;;18.50;79.00;;;;;;6242261;23;19907;-74
2021/06/01 11:54:05;;;;;;;10.00;6.10;;;18.60;79.20;;;;;;6241651;23;20042;-74
2021/06/01 12:11:12;;;;;;;10.88;4.43;;;18.60;79.00;;;;;;6242337;23;20054;-73
2021/06/01 12:11:27;;;;;;;7.55;5.07;;;18.40;79.20;;;;;;6211928;23;20050;-73
2021/06/01 12:14:12;;;;;;;9.80;5.63;;;18.40;79.60;;;;;;6242334;23;20011;-74
2021/06/01 12:19:30;;;;;;;8.02;5.10;;;18.50;79.90;;;;;;6240328;23;20039;-74
2021/06/01 12:21:57;;;;;;;7.53;5.10;;;18.60;79.70;;;;;;6241443;23;20440;-73
2021/06/01 12:24:25;;;;;;;8.32;5.70;;;18.60;79.40;;;;;;6241094;23;20000;-74
2021/06/01 12:27:13;;;;;;;9.35;5.93;;;18.60;78.80;;;;;;6242352;23;20430;-72
2021/06/01 12:32:34;;;;;;;8.73;4.90;;;18.60;78.70;;;;;;6241803;23;20050;-74
2021/06/01 12:35:43;;;;;;;13.90;5.75;;;18.70;78.70;;;;;;6242676;23;20005;-74
2021/06/01 13:20:01;;;;;;;4.28;1.10;;;19.70;71.60;;;;;;6243693;23;20058;-73
2021/06/01 13:30:59;;;;;;;3.08;1.02;;;19.60;71.30;;;;;;6243186;23;20031;-73
2021/06/01 13:47:08;;;;;;;7.80;2.78;;;19.60;70.20;;;;;;6242539;23;20015;-73
2021/06/01 13:49:42;;;;;;;3.22;1.00;;;19.60;70.10;;;;;;6243801;23;20012;-73
2021/06/01 14:00:22;;;;;;;3.93;1.30;;;19.60;70.00;;;;;;6242520;23;20454;-73
2021/06/01 14:22:03;;;;;;;1.83;0.93;;;19.30;70.20;;;;;;6242575;23;20020;-73
2021/06/01 15:10:54;;;;;;;4.25;1.80;;;18.60;72.80;;;;;;6242963;23;20088;-72
2021/06/01 15:49:31;;;;;;;10.07;3.17;;;18.10;75.30;;;;;;6241897;23;20453;-76
2021/06/01 16:11:52;;;;;;;11.13;5.85;;;18.00;75.70;;;;;;6242224;23;20340;-70
2021/06/01 19:24:58;;;;;;;23.77;13.80;;;17.00;81.90;;;;;;6251113;22;20019;-70
2021/06/01 19:50:34;;;;;;;22.42;16.60;;;16.90;81.80;;;;;;6241352;23;20023;-70
2021/06/01 19:52:59;;;;;;;20.23;15.20;;;16.90;81.70;;;;;;6241337;23;20008;-71
2021/06/01 19:55:30;;;;;;;18.90;14.13;;;16.90;81.80;;;;;;6243022;22;20131;-71
2021/06/01 19:57:58;;;;;;;18.00;13.10;;;16.90;81.80;;;;;;6241914;22;20000;-71
2021/06/01 20:00:26;;;;;;;18.88;13.32;;;16.80;81.80;;;;;;6243204;22;20053;-71
2021/06/01 20:02:53;;;;;;;17.13;13.32;;;16.80;81.70;;;;;;6241566;22;20453;-70
2021/06/01 20:05:20;;;;;;;17.33;12.95;;;16.80;81.80;;;;;;6241984;22;20340;-70
2021/06/01 20:07:47;;;;;;;15.07;11.32;;;16.80;81.80;;;;;;6242396;22;20003;-70
2021/06/01 20:10:16;;;;;;;18.25;12.18;;;16.80;81.80;;;;;;6242374;22;20000;-71
2021/06/01 20:12:45;;;;;;;20.42;12.15;;;16.80;81.90;;;;;;6243155;22;20011;-70
2021/06/01 20:15:14;;;;;;;16.65;12.80;;;16.70;81.80;;;;;;6241657;22;20501;-71
2021/06/01 20:17:43;;;;;;;15.30;11.85;;;16.70;81.80;;;;;;6243604;22;20004;-71
2021/06/01 20:20:26;;;;;;;16.50;12.23;;;16.80;81.90;;;;;;6241006;22;20016;-71
2021/06/01 20:23:04;;;;;;;13.57;11.40;;;16.80;81.90;;;;;;6242652;22;20007;-70
2021/06/01 20:25:32;;;;;;;14.88;11.32;;;16.80;81.90;;;;;;6242573;22;20008;-71
2021/06/01 20:28:02;;;;;;;17.50;11.90;;;16.80;81.90;;;;;;6241265;22;20003;-71
2021/06/01 20:30:31;;;;;;;23.23;12.95;;;16.80;81.90;;;;;;6242697;22;20000;-71
2021/06/01 20:33:12;;;;;;;18.92;12.38;;;16.70;81.80;;;;;;6241380;22;20020;-70
2021/06/01 20:35:51;;;;;;;19.88;11.80;;;16.70;81.80;;;;;;6241869;22;20004;-71
2021/06/01 20:38:19;;;;;;;19.23;10.73;;;16.70;81.80;;;;;;6242129;22;20075;-71
2021/06/01 20:40:47;;;;;;;15.02;9.85;;;16.70;81.80;;;;;;6239547;23;20323;-72
2021/06/01 20:43:15;;;;;;;20.27;10.63;;;16.70;81.70;;;;;;6242757;22;20322;-71
2021/06/01 20:45:43;;;;;;;11.32;9.20;;;16.70;81.70;;;;;;6241485;22;20000;-71
2021/06/01 20:48:14;;;;;;;11.07;9.23;;;16.70;81.70;;;;;;6242472;22;20000;-72
2021/06/01 20:50:42;;;;;;;13.40;9.40;;;16.70;81.60;;;;;;6240877;22;20014;-72
2021/06/01 20:53:10;;;;;;;11.93;8.32;;;16.70;81.60;;;;;;6242195;22;20489;-72
2021/06/01 20:55:38;;;;;;;10.60;7.55;;;16.60;81.50;;;;;;6242295;22;20012;-70
2021/06/01 20:58:08;;;;;;;11.18;8.05;;;16.70;81.50;;;;;;6241537;22;20001;-71
2021/06/01 21:00:37;;;;;;;14.75;8.57;;;16.60;81.40;;;;;;6242299;22;20062;-70
2021/06/01 21:03:11;;;;;;;14.02;8.57;;;16.60;81.40;;;;;;6240685;22;20008;-71
2021/06/01 21:05:40;;;;;;;12.85;8.25;;;16.60;81.40;;;;;;6242733;22;20075;-71
2021/06/01 21:08:08;;;;;;;10.80;7.82;;;16.60;81.30;;;;;;6240355;22;20008;-71
2021/06/01 21:10:37;;;;;;;12.02;7.57;;;16.60;81.30;;;;;;6242322;22;20000;-71
2021/06/01 21:13:05;;;;;;;12.32;7.60;;;16.60;81.30;;;;;;6241795;22;20000;-71
2021/06/01 21:15:33;;;;;;;8.45;6.53;;;16.60;81.30;;;;;;6241512;22;20458;-71